Time;durP1;ratioP1;P1;durP2;ratioP2;P2;SDS_P1;SDS_P2;PMS_P1;PMS_P2;Temp;Humidity;BMP_temperature;BMP_pressure;BME280_temperature;BME280_humidity;BME280_pressure;Samples;Min_cycle;Max_cycle;Signal;HPM_P1;HPM_P2
2022/12/03 00:03:04;;;;;;;65.00;24.03;;;;;;;-2.02;95.05;101719.77;3658504;80;32915;-86
2022/12/03 00:08:05;;;;;;;56.13;23.83;;;;;;;-2.03;94.85;101713.55;3646818;80;99293;-85
2022/12/03 00:13:06;;;;;;;62.40;24.20;;;;;;;-2.06;95.04;101706.00;3656159;80;32907;-85
2022/12/03 00:18:07;;;;;;;61.68;26.07;;;;;;;-2.07;95.27;101707.05;3651075;80;98738;-85
2022/12/03 00:23:07;;;;;;;64.83;25.63;;;;;;;-2.07;95.21;101707.05;3653852;80;32953;-86
2022/12/03 00:28:08;;;;;;;63.30;26.73;;;;;;;-2.06;95.65;101707.87;3647151;80;32874;-85
2022/12/03 00:33:09;;;;;;;70.07;27.80;;;;;;;-2.11;95.75;101706.49;3654029;80;99452;-85
2022/12/03 00:38:09;;;;;;;72.07;25.57;;;;;;;-2.15;96.00;101696.77;3654373;80;31283;-85
2022/12/03 00:43:10;;;;;;;61.70;25.80;;;;;;;-2.17;96.17;101688.67;3646838;80;98741;-85
2022/12/03 00:48:11;;;;;;;74.13;30.00;;;;;;;-2.13;96.28;101699.22;3662723;80;32326;-85
2022/12/03 00:53:12;;;;;;;65.87;25.77;;;;;;;-2.09;96.40;101699.77;3648016;80;99045;-85
2022/12/03 00:58:13;;;;;;;62.17;24.27;;;;;;;-2.09;96.36;101695.72;3655029;80;25924;-86
2022/12/03 01:03:13;;;;;;;61.83;25.40;;;;;;;-2.09;96.42;101701.67;3657498;80;99172;-84
2022/12/03 01:08:14;;;;;;;66.23;26.60;;;;;;;-2.11;96.48;101705.97;3658890;80;30945;-85
2022/12/03 01:13:15;;;;;;;70.20;26.10;;;;;;;-2.17;96.80;101700.28;3641737;80;99162;-85
2022/12/03 01:18:16;;;;;;;69.27;26.43;;;;;;;-2.18;96.88;101697.84;3661413;80;29795;-85
2022/12/03 01:23:17;;;;;;;70.23;26.90;;;;;;;-2.18;96.97;101694.59;3642799;80;102988;-86
2022/12/03 01:28:17;;;;;;;64.60;26.03;;;;;;;-2.21;96.91;101697.83;3664679;80;34828;-86
2022/12/03 01:33:18;;;;;;;65.57;24.55;;;;;;;-2.19;97.23;101694.32;3657135;80;101912;-85
2022/12/03 01:38:19;;;;;;;69.43;26.17;;;;;;;-2.15;96.91;101701.34;3617748;81;34864;-85
2022/12/03 01:43:20;;;;;;;61.70;25.63;;;;;;;-2.18;96.90;101693.80;3614653;80;99212;-86
2022/12/03 01:48:21;;;;;;;59.80;25.00;;;;;;;-2.14;97.09;101702.99;3692411;79;34840;-83
2022/12/03 01:53:22;;;;;;;55.27;22.63;;;;;;;-2.13;97.21;101693.27;3683966;79;99204;-86
2022/12/03 01:58:28;;;;;;;56.90;23.93;;;;;;;-2.16;97.17;101684.37;3684946;80;34820;-86
2022/12/03 02:03:29;;;;;;;59.42;23.40;;;;;;;-2.18;97.22;101682.45;3679505;79;99150;-86
2022/12/03 02:08:36;;;;;;;61.70;25.40;;;;;;;-2.22;97.29;101680.55;3685628;80;35478;-85
2022/12/03 02:13:37;;;;;;;61.05;24.67;;;;;;;-2.22;97.47;101673.81;3684578;80;99233;-85
2022/12/03 02:18:38;;;;;;;61.50;23.40;;;;;;;-2.27;97.63;101669.22;3686548;80;34889;-85
2022/12/03 02:24:13;;;;;;;56.10;23.13;;;;;;;-2.24;97.55;101667.33;3677730;80;99366;-85
2022/12/03 02:29:14;;;;;;;57.33;21.90;;;;;;;-2.25;97.90;101666.27;3668221;80;26268;-85
2022/12/03 02:34:36;;;;;;;56.03;22.63;;;;;;;-2.21;98.03;101660.07;3646789;80;99041;-85
2022/12/03 02:39:43;;;;;;;58.83;24.40;;;;;;;-2.19;97.95;101668.70;3654919;80;25913;-86
2022/12/03 02:44:44;;;;;;;61.55;24.45;;;;;;;-2.20;98.10;101668.44;3640939;80;99236;-85
2022/12/03 02:49:45;;;;;;;52.37;20.93;;;;;;;-2.21;98.39;101670.03;3650033;80;34797;-86
2022/12/03 02:54:46;;;;;;;59.20;22.60;;;;;;;-2.26;98.37;101665.96;3642203;80;98935;-85
2022/12/03 02:59:47;;;;;;;50.17;20.57;;;;;;;-2.27;98.67;101669.22;3651832;80;34903;-86
2022/12/03 03:04:48;;;;;;;54.23;20.87;;;;;;;-2.26;98.83;101665.44;3644663;80;99042;-85
2022/12/03 03:09:49;;;;;;;54.93;21.63;;;;;;;-2.23;98.85;101664.93;3651259;80;35479;-84
2022/12/03 03:14:50;;;;;;;59.23;22.00;;;;;;;-2.24;98.93;101670.02;3656245;80;98847;-87
2022/12/03 03:19:51;;;;;;;50.60;22.30;;;;;;;-2.29;99.16;101670.55;3645433;80;35499;-85
2022/12/03 03:24:52;;;;;;;60.43;22.80;;;;;;;-2.29;99.66;101672.69;3648949;80;99119;-85
2022/12/03 03:29:55;;;;;;;55.40;20.90;;;;;;;-2.24;99.97;101663.28;3632059;80;35909;-85
2022/12/03 03:34:56;;;;;;;57.37;21.20;;;;;;;-2.18;100.00;101659.53;3632896;80;99066;-84
2022/12/03 03:39:57;;;;;;;60.63;22.67;;;;;;;-2.12;100.00;101662.55;3641020;80;34885;-84
2022/12/03 03:44:58;;;;;;;60.30;21.70;;;;;;;-2.18;100.00;101656.84;3625144;80;99228;-84
2022/12/03 03:49:59;;;;;;;62.10;22.90;;;;;;;-2.24;100.00;101653.84;3636657;81;34747;-85
2022/12/03 03:55:00;;;;;;;61.63;21.97;;;;;;;-2.21;100.00;101660.59;3613944;81;99101;-83
2022/12/03 04:00:03;;;;;;;62.30;23.47;;;;;;;-2.33;100.00;101627.66;3632458;80;35130;-83
2022/12/03 04:05:05;;;;;;;57.67;21.07;;;;;;;-2.22;100.00;101644.98;3634953;80;99020;-85
2022/12/03 04:12:54;;;;;;;54.30;23.93;;;;;;;-2.21;100.00;101649.29;3627497;81;35454;-85
2022/12/03 04:15:09;;;;;;;58.85;21.85;;;;;;;-2.23;100.00;101654.67;3625718;81;99352;-85
2022/12/03 04:20:11;;;;;;;58.27;20.63;;;;;;;-2.19;100.00;101639.59;3633892;81;35472;-84
2022/12/03 04:30:32;;;;;;;52.53;21.27;;;;;;;-2.26;100.00;101634.95;3673558;80;26919;-85
2022/12/03 04:35:41;;;;;;;52.00;20.57;;;;;;;-2.22;100.00;101636.06;3680044;80;99421;-84
2022/12/03 04:41:00;;;;;;;41.10;17.27;;;;;;;-2.24;100.00;101631.48;3690097;80;26138;-84
2022/12/03 04:46:01;;;;;;;46.88;17.55;;;;;;;-2.23;100.00;101632.58;3683758;80;99395;-84
2022/12/03 04:51:02;;;;;;;49.30;18.67;;;;;;;-2.18;100.00;101634.47;3690700;80;34836;-83
2022/12/03 04:56:02;;;;;;;47.40;20.30;;;;;;;-2.19;100.00;101626.91;3681446;80;99393;-84
2022/12/03 05:01:03;;;;;;;51.80;18.40;;;;;;;-2.15;100.00;101620.44;3689831;80;34923;-84
2022/12/03 05:06:04;;;;;;;49.70;17.00;;;;;;;-2.13;100.00;101619.11;3684596;80;99474;-84
2022/12/03 05:11:06;;;;;;;50.73;20.17;;;;;;;-2.08;100.00;101614.29;3687301;80;35254;-84
2022/12/03 05:16:07;;;;;;;50.27;17.23;;;;;;;-2.10;100.00;101604.28;3681297;80;99581;-83
2022/12/03 05:21:08;;;;;;;41.00;17.57;;;;;;;-2.08;100.00;101604.84;3690470;80;34771;-84
2022/12/03 05:26:09;;;;;;;48.10;20.03;;;;;;;-2.08;100.00;101601.59;3677042;80;99097;-83
2022/12/03 05:31:10;;;;;;;45.97;19.43;;;;;;;-2.10;100.00;101601.06;3685032;80;35315;-83
2022/12/03 05:36:11;;;;;;;43.47;15.93;;;;;;;-2.08;100.00;101606.20;3680678;80;99365;-83
2022/12/03 05:46:31;;;;;;;47.05;18.90;;;;;;;-2.06;100.00;101601.34;3679226;80;99139;-84
2022/12/03 05:51:32;;;;;;;43.83;17.53;;;;;;;-2.09;100.00;101597.84;3683062;80;32402;-84
2022/12/03 05:56:33;;;;;;;47.77;17.53;;;;;;;-2.13;100.00;101594.05;3683486;80;99318;-83
2022/12/03 06:01:34;;;;;;;52.17;18.47;;;;;;;-2.17;100.00;101592.94;3685761;80;32555;-84
2022/12/03 06:06:34;;;;;;;43.30;17.77;;;;;;;-2.16;100.00;101587.29;3675684;80;99003;-84
2022/12/03 06:11:36;;;;;;;47.65;19.10;;;;;;;-2.14;100.00;101589.17;3686566;80;32508;-84
2022/12/03 06:16:37;;;;;;;46.40;17.77;;;;;;;-2.15;100.00;101591.60;3683507;80;98954;-83
2022/12/03 06:21:37;;;;;;;41.83;18.47;;;;;;;-2.15;100.00;101595.65;3685945;80;32393;-83
2022/12/03 06:26:38;;;;;;;49.73;19.02;;;;;;;-2.15;100.00;101596.17;3679008;80;99121;-83
2022/12/03 06:31:39;;;;;;;42.40;17.10;;;;;;;-2.15;100.00;101591.60;3643561;79;28515;-83
2022/12/03 06:36:39;;;;;;;48.00;20.07;;;;;;;-2.10;100.00;101594.84;3631334;80;99104;-83
2022/12/03 06:41:40;;;;;;;51.17;18.93;;;;;;;-2.08;100.00;101602.94;3634943;80;26339;-83
2022/12/03 06:46:41;;;;;;;47.70;20.40;;;;;;;-2.13;100.00;101600.78;3622761;81;99190;-84
2022/12/03 06:51:42;;;;;;;48.33;21.60;;;;;;;-2.13;100.00;101601.58;3629630;81;25839;-83
2022/12/03 06:56:43;;;;;;;52.58;20.17;;;;;;;-2.14;100.00;101601.86;3627284;81;99115;-83
2022/12/03 07:01:44;;;;;;;48.30;19.67;;;;;;;-2.17;100.00;101598.33;3631696;81;25771;-83
2022/12/03 07:06:44;;;;;;;44.43;19.20;;;;;;;-2.18;100.00;101593.47;3620391;80;99262;-83
2022/12/03 07:11:45;;;;;;;45.13;18.93;;;;;;;-2.14;100.00;101594.56;3638246;80;34029;-83
2022/12/03 07:16:46;;;;;;;49.03;21.57;;;;;;;-2.11;100.00;101591.35;3623207;81;99055;-83
2022/12/03 07:21:47;;;;;;;48.27;19.07;;;;;;;-2.06;100.00;101583.80;3636712;80;33720;-82
2022/12/03 07:26:48;;;;;;;48.87;21.00;;;;;;;-2.02;100.00;101588.39;3627334;81;99128;-82
2022/12/03 07:31:49;;;;;;;54.10;21.67;;;;;;;-1.98;100.00;101584.09;3665579;80;32900;-83
2022/12/03 07:36:49;;;;;;;51.87;23.07;;;;;;;-1.96;100.00;101580.61;3672283;80;99286;-84
2022/12/03 07:41:50;;;;;;;49.97;20.63;;;;;;;-1.97;100.00;101579.52;3685520;80;31061;-82
2022/12/03 07:46:51;;;;;;;49.67;21.33;;;;;;;-1.98;100.00;101583.30;3673788;80;99266;-82
2022/12/03 07:51:56;;;;;;;48.07;19.23;;;;;;;-1.95;100.00;101583.58;3672907;80;31549;-82
2022/12/03 07:56:56;;;;;;;49.37;20.43;;;;;;;-1.92;100.00;101583.03;3671485;80;99224;-82
2022/12/03 08:01:57;;;;;;;54.17;22.27;;;;;;;-1.90;100.00;101586.81;3674432;80;32670;-81
2022/12/03 08:06:58;;;;;;;53.67;23.37;;;;;;;-1.88;100.00;101587.34;3658901;80;99081;-82
2022/12/03 08:12:03;;;;;;;49.60;20.87;;;;;;;-1.82;100.00;101578.19;3679228;80;32175;-82
2022/12/03 08:17:10;;;;;;;62.17;25.23;;;;;;;-1.80;100.00;101576.84;3678341;80;99332;-82
2022/12/03 08:22:13;;;;;;;51.83;23.45;;;;;;;-1.76;100.00;101571.75;3683856;80;26310;-81
2022/12/03 08:27:18;;;;;;;52.60;25.00;;;;;;;-1.72;100.00;101570.11;3676945;80;99241;-82
2022/12/03 08:32:19;;;;;;;63.23;30.15;;;;;;;-1.68;100.00;101566.63;3649319;80;30119;-82
2022/12/03 08:37:19;;;;;;;52.20;22.30;;;;;;;-1.65;100.00;101569.33;3637033;80;98907;-82
2022/12/03 08:42:46;;;;;;;51.70;23.60;;;;;;;-1.55;100.00;101575.53;3646551;80;31689;-82
2022/12/03 08:47:28;;;;;;;56.50;24.03;;;;;;;-1.48;100.00;101576.06;3639417;80;99482;-82
2022/12/03 08:52:33;;;;;;;53.67;24.63;;;;;;;-1.38;100.00;101584.73;3656023;80;29049;-82
2022/12/03 08:57:34;;;;;;;72.53;37.00;;;;;;;-1.35;100.00;101574.20;3642678;80;99154;-82
2022/12/03 09:02:35;;;;;;;116.30;52.77;;;;;;;-1.31;100.00;101586.61;3635326;80;31603;-82
2022/12/03 09:07:35;;;;;;;81.27;35.57;;;;;;;-1.28;100.00;101580.13;3647423;80;99500;-82
2022/12/03 09:12:36;;;;;;;55.83;23.23;;;;;;;-1.19;100.00;101571.76;3651742;80;31605;-83
2022/12/03 09:17:38;;;;;;;62.90;24.57;;;;;;;-1.09;100.00;101570.93;3637520;80;99271;-82
2022/12/03 09:22:39;;;;;;;73.30;27.33;;;;;;;-1.11;100.00;101567.70;3646078;80;31767;-82
2022/12/03 09:27:39;;;;;;;65.77;28.23;;;;;;;-1.05;100.00;101556.59;3641198;80;98909;-82
2022/12/03 09:32:40;;;;;;;65.93;28.40;;;;;;;-0.91;100.00;101555.48;3647335;80;30707;-82
2022/12/03 09:37:41;;;;;;;78.60;30.90;;;;;;;-0.93;100.00;101553.05;3647490;80;98827;-82
2022/12/03 09:42:42;;;;;;;108.60;36.80;;;;;;;-0.92;100.00;101556.58;3644767;80;28899;-81
2022/12/03 09:47:47;;;;;;;78.63;34.13;;;;;;;-0.91;100.00;101550.08;3648207;80;99350;-81
2022/12/03 09:52:49;;;;;;;139.93;45.40;;;;;;;-0.92;100.00;101553.88;3649414;80;26373;-82
2022/12/03 09:57:52;;;;;;;147.68;49.50;;;;;;;-0.96;100.00;101550.09;3640399;80;99275;-82
2022/12/03 10:02:57;;;;;;;119.00;44.37;;;;;;;-1.01;100.00;101537.95;3625767;80;27889;-82
2022/12/03 10:08:08;;;;;;;80.62;31.30;;;;;;;-0.94;100.00;101534.44;3641578;80;99348;-83
2022/12/03 10:13:14;;;;;;;218.73;65.47;;;;;;;-0.85;100.00;101532.77;3646320;80;99409;-83
2022/12/03 10:18:22;;;;;;;112.12;38.75;;;;;;;-0.88;100.00;101526.58;3646549;80;26449;-82
2022/12/03 10:23:28;;;;;;;57.85;22.93;;;;;;;-0.80;100.00;101522.77;3647763;80;99308;-81
2022/12/03 10:28:36;;;;;;;57.53;22.70;;;;;;;-0.76;100.00;101508.98;3648352;80;28132;-82
2022/12/03 10:33:41;;;;;;;54.60;24.18;;;;;;;-0.72;100.00;101502.48;3655722;79;99275;-82
2022/12/03 10:38:43;;;;;;;56.28;24.87;;;;;;;-0.65;100.00;101496.22;3660768;80;26140;-81
2022/12/03 10:43:43;;;;;;;60.17;25.20;;;;;;;-0.61;100.00;101500.00;3652783;80;99136;-81
2022/12/03 10:48:44;;;;;;;62.60;26.43;;;;;;;-0.58;100.00;101498.90;3658078;80;34854;-82
2022/12/03 10:53:48;;;;;;;65.62;26.35;;;;;;;-0.55;100.00;101505.09;3645617;80;99475;-83
2022/12/03 10:58:49;;;;;;;61.03;28.63;;;;;;;-0.49;100.00;101509.94;3646664;80;27872;-83
2022/12/03 11:03:51;;;;;;;62.57;25.87;;;;;;;-0.49;100.00;101494.54;3650161;80;99233;-83
2022/12/03 11:08:53;;;;;;;79.53;33.10;;;;;;;-0.54;100.00;101492.39;3659336;80;28852;-83
2022/12/03 11:13:58;;;;;;;71.55;30.62;;;;;;;-0.57;100.00;101486.17;3653351;80;99245;-82
2022/12/03 11:19:00;;;;;;;60.35;28.52;;;;;;;-0.57;100.00;101491.58;3663983;80;27856;-83
2022/12/03 11:24:04;;;;;;;59.23;27.70;;;;;;;-0.57;100.00;101492.40;3648854;79;99032;-83
2022/12/03 11:29:10;;;;;;;57.70;26.20;;;;;;;-0.59;100.00;101486.47;3659298;80;25945;-81
2022/12/03 11:34:25;;;;;;;62.20;28.10;;;;;;;-0.62;100.00;101470.00;3621594;80;99461;-84
2022/12/03 11:39:56;;;;;;;59.17;25.63;;;;;;;-0.62;100.00;101474.84;3630583;81;26885;-85
2022/12/03 11:45:11;;;;;;;60.00;26.53;;;;;;;-0.66;100.00;101469.72;3624744;81;99265;-82
2022/12/03 11:50:37;;;;;;;65.13;28.03;;;;;;;-0.62;100.00;101462.69;3619079;81;27988;-83
2022/12/03 11:55:47;;;;;;;58.23;26.50;;;;;;;-0.58;100.00;101460.23;3626725;80;99602;-83
2022/12/03 12:00:52;;;;;;;68.43;29.57;;;;;;;-0.58;100.00;101457.00;3636483;81;26884;-83
2022/12/03 12:06:07;;;;;;;69.37;29.23;;;;;;;-0.55;100.00;101454.28;3627152;80;99153;-81
2022/12/03 12:11:33;;;;;;;59.47;26.07;;;;;;;-0.55;100.00;101456.42;3640830;81;28902;-83
2022/12/03 12:16:49;;;;;;;63.33;25.83;;;;;;;-0.54;100.00;101453.19;3629152;80;98928;-82
2022/12/03 12:21:50;;;;;;;;;;;;;;;-0.52;100.00;101451.83;3639844;81;26207;-82
2022/12/03 12:26:51;;;;;;;64.63;27.07;;;;;;;-0.58;100.00;101452.94;3632102;80;84570;-82
2022/12/03 12:32:03;;;;;;;61.03;25.60;;;;;;;-0.56;100.00;101443.99;3647707;79;34883;-83
2022/12/03 12:37:32;;;;;;;64.77;26.90;;;;;;;-0.59;100.00;101441.86;3670755;80;99033;-83
2022/12/03 12:42:37;;;;;;;65.72;28.47;;;;;;;-0.53;100.00;101442.63;3687273;80;31506;-82
2022/12/03 12:47:44;;;;;;;67.35;30.23;;;;;;;-0.48;100.00;101445.31;3624518;80;98963;-81
2022/12/03 12:52:53;;;;;;;66.55;31.27;;;;;;;-0.41;100.00;101458.79;3621111;80;30402;-82
2022/12/03 12:57:59;;;;;;;68.92;28.30;;;;;;;-0.37;100.00;101457.15;3613024;80;98707;-82
2022/12/03 13:03:02;;;;;;;71.37;31.93;;;;;;;-0.39;100.00;101428.77;3620260;80;25995;-83
2022/12/03 13:08:18;;;;;;;93.37;37.03;;;;;;;-0.39;100.00;101425.50;3611108;80;99181;-82
2022/12/03 13:13:35;;;;;;;76.90;35.43;;;;;;;-0.36;100.00;101422.25;3605805;80;98762;-82
2022/12/03 13:18:55;;;;;;;80.30;35.73;;;;;;;-0.38;100.00;101423.62;3618106;80;26034;-82
2022/12/03 13:23:57;;;;;;;83.03;38.40;;;;;;;-0.40;100.00;101432.57;3608648;80;99050;-83
2022/12/03 13:29:01;;;;;;;78.93;34.57;;;;;;;-0.42;100.00;101437.42;3613095;80;34952;-82
2022/12/03 13:34:13;;;;;;;81.50;38.17;;;;;;;-0.42;100.00;101430.66;3612374;80;99182;-82
2022/12/03 13:39:34;;;;;;;74.57;33.17;;;;;;;-0.42;100.00;101416.05;3617602;80;26469;-82
2022/12/03 13:44:45;;;;;;;78.35;32.80;;;;;;;-0.44;100.00;101428.23;3589474;80;99178;-83
2022/12/03 13:49:58;;;;;;;76.40;35.17;;;;;;;-0.44;100.00;101430.94;3609184;80;30072;-83
2022/12/03 13:55:02;;;;;;;79.37;34.10;;;;;;;-0.45;100.00;101419.87;3598762;80;99075;-82
2022/12/03 14:00:05;;;;;;;81.87;35.10;;;;;;;-0.50;100.00;101426.66;3615590;81;26293;-82
2022/12/03 14:05:06;;;;;;;84.22;34.60;;;;;;;-0.47;100.00;101418.78;3614629;80;99210;-83
2022/12/03 14:10:10;;;;;;;87.20;33.50;;;;;;;-0.47;100.00;101426.11;3634052;80;34957;-82
2022/12/03 14:15:11;;;;;;;76.70;32.93;;;;;;;-0.50;100.00;101422.59;3623715;80;99000;-82
2022/12/03 14:20:14;;;;;;;82.57;32.90;;;;;;;-0.47;100.00;101421.23;3630528;80;34813;-82
2022/12/03 14:25:15;;;;;;;77.05;34.10;;;;;;;-0.48;100.00;101407.45;3633214;80;98770;-82
2022/12/03 14:30:16;;;;;;;73.03;34.23;;;;;;;-0.47;100.00;101402.56;3642831;80;34886;-83
2022/12/03 14:35:17;;;;;;;77.60;32.57;;;;;;;-0.45;100.00;101401.50;3603221;80;99228;-83
2022/12/03 14:40:18;;;;;;;77.50;31.87;;;;;;;-0.51;100.00;101395.86;3620285;80;34879;-83
2022/12/03 14:45:19;;;;;;;83.40;35.03;;;;;;;-0.55;100.00;101394.80;3594631;80;99334;-82
2022/12/03 14:50:20;;;;;;;84.97;35.80;;;;;;;-0.53;100.00;101402.08;3592487;81;34843;-81
2022/12/03 14:55:21;;;;;;;76.67;33.10;;;;;;;-0.55;100.00;101409.11;3589012;80;99216;-83
2022/12/03 15:00:22;;;;;;;90.87;37.30;;;;;;;-0.54;100.00;101409.39;3590764;82;35365;-82
2022/12/03 15:05:22;;;;;;;76.17;33.33;;;;;;;-0.55;100.00;101417.22;3591714;82;98910;-82
2022/12/03 15:10:23;;;;;;;85.45;35.63;;;;;;;-0.50;100.00;101417.75;3593624;81;36164;-83
2022/12/03 15:15:24;;;;;;;84.43;35.03;;;;;;;-0.52;100.00;101418.55;3593848;81;99029;-83
2022/12/03 15:20:25;;;;;;;92.83;35.30;;;;;;;-0.52;100.00;101415.32;3592882;81;32559;-83
2022/12/03 15:25:26;;;;;;;92.63;37.30;;;;;;;-0.51;100.00;101418.28;3594505;80;98896;-83
2022/12/03 15:30:27;;;;;;;84.70;34.90;;;;;;;-0.54;100.00;101413.98;3589345;82;32456;-83
2022/12/03 15:35:30;;;;;;;91.13;37.90;;;;;;;-0.55;100.00;101421.83;3649059;80;99104;-83
2022/12/03 15:40:30;;;;;;;93.27;40.97;;;;;;;-0.57;100.00;101419.41;3670738;80;32500;-83
2022/12/03 15:45:31;;;;;;;99.67;37.93;;;;;;;-0.58;100.00;101419.14;3657764;80;99458;-83
2022/12/03 15:50:32;;;;;;;93.10;39.27;;;;;;;-0.56;100.00;101417.52;3647324;80;32732;-83
2022/12/03 15:55:33;;;;;;;97.37;39.20;;;;;;;-0.57;100.00;101412.64;3653843;80;99183;-83
2022/12/03 16:00:34;;;;;;;91.90;36.67;;;;;;;-0.57;100.00;101405.06;3661738;80;33101;-83
2022/12/03 16:05:35;;;;;;;95.38;38.73;;;;;;;-0.57;100.00;101398.30;3659447;80;99039;-83
2022/12/03 16:10:36;;;;;;;99.63;41.67;;;;;;;-0.56;100.00;101397.25;3671343;80;32473;-82
2022/12/03 16:15:36;;;;;;;104.32;41.77;;;;;;;-0.59;100.00;101402.66;3655479;80;99003;-83
2022/12/03 16:20:37;;;;;;;100.40;41.13;;;;;;;-0.60;100.00;101415.89;3666211;80;27443;-82
2022/12/03 16:25:38;;;;;;;111.80;41.53;;;;;;;-0.59;100.00;101416.72;3656228;80;99291;-83
2022/12/03 16:30:39;;;;;;;100.07;41.87;;;;;;;-0.58;100.00;101403.45;3670287;80;26210;-84
2022/12/03 16:35:40;;;;;;;100.47;42.57;;;;;;;-0.57;100.00;101404.53;3661412;80;99629;-82
2022/12/03 16:40:40;;;;;;;97.70;40.73;;;;;;;-0.53;100.00;101404.78;3663689;80;26556;-83
2022/12/03 16:50:42;;;;;;;125.10;47.80;;;;;;;-0.49;100.00;101411.25;3663857;80;26379;-82
2022/12/03 16:55:42;;;;;;;119.23;46.63;;;;;;;-0.47;100.00;101420.70;3658829;80;99044;-83
2022/12/03 17:00:43;;;;;;;111.30;45.63;;;;;;;-0.49;100.00;101421.53;3660416;80;32939;-82
2022/12/03 17:05:45;;;;;;;105.73;44.63;;;;;;;-0.49;100.00;101415.30;3664087;80;98982;-82
2022/12/03 17:10:46;;;;;;;110.83;44.93;;;;;;;-0.47;100.00;101409.32;3663125;80;32899;-83
2022/12/03 17:15:46;;;;;;;109.67;41.63;;;;;;;-0.47;100.00;101410.67;3652663;80;99126;-83
2022/12/03 17:20:47;;;;;;;104.57;41.73;;;;;;;-0.45;100.00;101405.55;3666439;80;32937;-83
2022/12/03 17:25:48;;;;;;;107.07;44.23;;;;;;;-0.45;100.00;101399.58;3657905;80;99059;-83
2022/12/03 17:30:49;;;;;;;110.70;43.77;;;;;;;-0.43;100.00;101389.84;3666677;80;33196;-83
2022/12/03 17:35:50;;;;;;;116.10;44.93;;;;;;;-0.40;100.00;101389.30;3615135;80;99006;-82
2022/12/03 17:40:51;;;;;;;124.03;46.70;;;;;;;-0.38;100.00;101395.22;3600997;81;32986;-83
2022/12/03 17:45:51;;;;;;;103.37;41.20;;;;;;;-0.36;100.00;101397.34;3588641;81;99286;-83
2022/12/03 17:50:54;;;;;;;105.03;42.67;;;;;;;-0.39;100.00;101403.08;3600709;82;32160;-83
2022/12/03 17:55:54;;;;;;;112.37;45.08;;;;;;;-0.40;100.00;101401.47;3591381;81;98945;-82
2022/12/03 18:00:55;;;;;;;111.83;43.70;;;;;;;-0.40;100.00;101406.31;3598976;81;32161;-83
2022/12/03 18:05:56;;;;;;;103.07;43.43;;;;;;;-0.39;100.00;101401.72;3598021;81;99115;-83
2022/12/03 18:10:57;;;;;;;107.30;43.00;;;;;;;-0.38;100.00;101403.34;3604200;81;32233;-83
2022/12/03 18:15:58;;;;;;;106.03;45.33;;;;;;;-0.38;100.00;101397.39;3597162;81;99073;-83
2022/12/03 18:21:03;;;;;;;102.07;42.37;;;;;;;-0.37;100.00;101393.59;3605071;81;29791;-82
2022/12/03 18:26:04;;;;;;;94.43;42.00;;;;;;;-0.33;100.00;101393.27;3597399;82;99407;-83
2022/12/03 18:31:16;;;;;;;104.67;42.03;;;;;;;-0.32;100.00;101379.22;3599810;82;32156;-83
2022/12/03 18:36:28;;;;;;;100.25;40.95;;;;;;;-0.29;100.00;101384.08;3604917;80;99334;-83
2022/12/03 18:41:29;;;;;;;101.43;44.30;;;;;;;-0.26;100.00;101381.62;3611756;81;26314;-83
2022/12/03 18:46:30;;;;;;;108.60;47.67;;;;;;;-0.20;100.00;101381.27;3604961;81;99098;-83
2022/12/03 18:51:31;;;;;;;97.90;41.73;;;;;;;-0.20;100.00;101372.37;3613945;81;31641;-84
2022/12/03 18:56:32;;;;;;;100.17;42.80;;;;;;;-0.19;100.00;101382.09;3602289;81;98700;-84
2022/12/03 19:01:33;;;;;;;97.80;42.77;;;;;;;-0.21;100.00;101374.25;3608406;81;30565;-83
2022/12/03 19:06:34;;;;;;;105.45;44.30;;;;;;;-0.17;100.00;101383.17;3605777;81;98672;-83
2022/12/03 19:11:35;;;;;;;102.13;42.00;;;;;;;-0.15;100.00;101392.62;3610927;81;32802;-83
2022/12/03 19:16:38;;;;;;;103.50;46.10;;;;;;;-0.15;100.00;101390.70;3603025;80;98871;-83
2022/12/03 19:21:39;;;;;;;98.00;44.20;;;;;;;-0.14;100.00;101384.77;3611369;81;31668;-83
2022/12/03 19:26:40;;;;;;;99.90;41.93;;;;;;;-0.15;100.00;101385.86;3603554;81;98683;-83
2022/12/03 19:31:41;;;;;;;107.53;44.87;;;;;;;-0.13;100.00;101391.78;3613896;81;31717;-83
2022/12/03 19:36:42;;;;;;;104.90;43.57;;;;;;;-0.10;100.00;101393.37;3609267;80;98789;-83
2022/12/03 19:41:43;;;;;;;106.40;43.27;;;;;;;-0.08;100.00;101394.45;3605126;81;29727;-82
2022/12/03 19:46:44;;;;;;;95.37;42.40;;;;;;;-0.10;100.00;101393.93;3597768;81;98922;-82
2022/12/03 19:51:46;;;;;;;100.97;40.53;;;;;;;-0.11;100.00;101393.11;3611882;81;31640;-82
2022/12/03 19:56:47;;;;;;;94.07;43.00;;;;;;;-0.11;100.00;101399.87;3605079;81;98836;-83
2022/12/03 20:01:47;;;;;;;97.77;42.23;;;;;;;-0.11;100.00;101400.41;3612361;81;30274;-82
2022/12/03 20:06:48;;;;;;;95.83;41.40;;;;;;;-0.09;100.00;101394.19;3602510;80;99009;-82
2022/12/03 20:11:50;;;;;;;92.00;41.03;;;;;;;-0.10;100.00;101387.95;3607909;81;35153;-83
2022/12/03 20:16:51;;;;;;;97.92;41.00;;;;;;;-0.05;100.00;101396.03;3604505;80;99120;-83
2022/12/03 20:21:52;;;;;;;98.17;41.27;;;;;;;-0.01;100.00;101390.33;3611188;81;34927;-82
2022/12/03 20:26:52;;;;;;;101.70;44.03;;;;;;;-0.01;100.00;101389.51;3602577;81;99058;-82
2022/12/03 20:31:53;;;;;;;107.10;45.53;;;;;;;-0.02;100.00;101391.95;3599603;81;34876;-83
2022/12/03 20:36:54;;;;;;;99.10;43.07;;;;;;;0.02;100.00;101386.25;3597839;80;99160;-82
2022/12/03 20:41:55;;;;;;;101.80;42.80;;;;;;;0.04;100.00;101386.76;3603506;81;34900;-82
2022/12/03 20:46:55;;;;;;;105.38;45.06;;;;;;;0.04;100.00;101380.81;3592202;81;99250;-84
2022/12/03 20:51:56;;;;;;;98.20;41.73;;;;;;;0.03;100.00;101372.44;3604580;81;33055;-83
2022/12/03 20:56:57;;;;;;;102.12;43.28;;;;;;;0.05;100.00;101368.89;3598460;81;98503;-82
2022/12/03 21:01:58;;;;;;;103.03;42.33;;;;;;;0.07;100.00;101367.27;3604319;81;32479;-82
2022/12/03 21:07:00;;;;;;;105.07;46.13;;;;;;;0.08;100.00;101360.22;3595369;81;98643;-81
2022/12/03 21:12:01;;;;;;;114.27;49.37;;;;;;;0.10;100.00;101363.44;3595687;81;32429;-82
2022/12/03 21:17:02;;;;;;;106.07;43.87;;;;;;;0.13;100.00;101367.47;3596772;81;98845;-82
2022/12/03 21:22:04;;;;;;;104.23;43.00;;;;;;;0.13;100.00;101368.27;3610011;81;33023;-83
2022/12/03 21:27:05;;;;;;;104.30;44.77;;;;;;;0.16;100.00;101373.13;3597941;81;99078;-84
2022/12/03 21:32:06;;;;;;;120.00;49.97;;;;;;;0.19;100.00;101364.44;3600825;81;32919;-83
2022/12/03 21:37:07;;;;;;;105.63;45.63;;;;;;;0.20;100.00;101361.99;3642722;80;98717;-84
2022/12/03 21:42:07;;;;;;;104.43;45.20;;;;;;;0.20;100.00;101363.34;3646822;80;32540;-83
2022/12/03 21:47:08;;;;;;;96.77;42.23;;;;;;;0.23;100.00;101367.38;3648847;80;98854;-83
2022/12/03 21:52:09;;;;;;;109.03;42.65;;;;;;;0.23;100.00;101356.55;3659343;80;32516;-83
2022/12/03 21:57:10;;;;;;;101.82;43.38;;;;;;;0.22;100.00;101352.23;3647328;80;99300;-82
2022/12/03 22:02:11;;;;;;;101.40;44.30;;;;;;;0.24;100.00;101347.33;3656741;80;26657;-82
2022/12/03 22:07:12;;;;;;;95.73;40.23;;;;;;;0.25;100.00;101340.82;3652637;80;98995;-83
2022/12/03 22:12:13;;;;;;;102.10;46.10;;;;;;;0.26;100.00;101337.02;3668193;80;26381;-83
2022/12/03 22:17:13;;;;;;;110.60;43.23;;;;;;;0.25;100.00;101325.40;3652942;80;98842;-83
2022/12/03 22:22:14;;;;;;;108.03;44.10;;;;;;;0.29;100.00;101333.75;3668281;80;26216;-83
2022/12/03 22:27:15;;;;;;;109.07;45.57;;;;;;;0.33;100.00;101323.41;3652041;80;99198;-82
2022/12/03 22:32:16;;;;;;;105.23;45.43;;;;;;;0.37;100.00;101333.92;3665335;80;26870;-83
2022/12/03 22:37:17;;;;;;;106.73;44.77;;;;;;;0.37;100.00;101318.22;3619428;80;98717;-83
2022/12/03 22:42:17;;;;;;;110.00;45.63;;;;;;;0.37;100.00;101321.74;3607481;81;33022;-82
2022/12/03 22:47:18;;;;;;;105.63;45.43;;;;;;;0.38;100.00;101323.34;3600375;81;98730;-82
2022/12/03 22:52:19;;;;;;;99.13;39.43;;;;;;;0.37;100.00;101324.45;3596460;81;32901;-83
2022/12/03 22:57:20;;;;;;;102.45;41.28;;;;;;;0.40;100.00;101329.27;3596094;81;98976;-83